createdAt,value
2018-11-26T00:00:47.696Z,75.45
2018-11-26T00:03:16.791Z,75.68
2018-11-26T00:05:45.526Z,75.94
2018-11-26T00:08:14.618Z,76.18
2018-11-26T00:10:54.575Z,76.25
2018-11-26T00:13:23.374Z,76.48
2018-11-26T00:15:52.110Z,76.70
2018-11-26T00:18:20.926Z,76.91
2018-11-26T00:20:49.671Z,76.52
2018-11-26T00:23:18.458Z,76.49
2018-11-26T00:25:47.350Z,76.57
2018-11-26T00:28:16.083Z,76.24
2018-11-26T00:30:44.856Z,76.72
2018-11-26T00:33:13.939Z,76.30
2018-11-26T00:35:42.648Z,76.26
2018-11-26T00:38:11.389Z,76.28
2018-11-26T00:40:40.223Z,76.15
2018-11-26T00:43:08.922Z,76.12
2018-11-26T00:45:37.648Z,76.14
2018-11-26T00:48:07.023Z,76.56
2018-11-26T00:50:35.903Z,75.99
2018-11-26T00:53:04.627Z,76.18
2018-11-26T00:55:33.723Z,76.34
2018-11-26T00:58:02.475Z,76.36
2018-11-26T01:00:31.197Z,76.52
2018-11-26T01:03:00.086Z,76.72
2018-11-26T01:05:35.017Z,76.75
2018-11-26T01:08:03.908Z,77.15
2018-11-26T01:10:32.620Z,77.02
2018-11-26T01:13:01.361Z,77.38
2018-11-26T01:15:30.411Z,77.59
2018-11-26T01:17:59.542Z,78.00
2018-11-26T01:20:29.511Z,78.48
2018-11-26T01:22:59.937Z,78.35
2018-11-26T01:25:29.351Z,78.58
2018-11-26T01:27:58.114Z,78.32
2018-11-26T01:30:27.470Z,78.58
2018-11-26T01:32:56.228Z,78.19
2018-11-26T01:35:25.119Z,78.52
2018-11-26T01:37:53.954Z,78.63
2018-11-26T01:40:29.233Z,78.42
2018-11-26T01:42:58.446Z,78.09
2018-11-26T01:45:27.195Z,78.35
2018-11-26T01:47:56.052Z,78.26
2018-11-26T01:50:25.237Z,78.01
2018-11-26T01:52:54.298Z,78.66
2018-11-26T01:55:23.097Z,78.24
2018-11-26T01:57:51.959Z,78.39
2018-11-26T02:00:22.480Z,78.42
2018-11-26T02:02:51.362Z,78.51
2018-11-26T02:05:20.366Z,78.21
2018-11-26T02:07:49.229Z,78.42
2018-11-26T02:10:21.968Z,77.94
2018-11-26T02:12:51.073Z,78.40
2018-11-26T02:15:35.807Z,78.00
2018-11-26T02:18:04.823Z,78.10
2018-11-26T02:20:33.807Z,77.85
2018-11-26T02:23:02.851Z,77.73
2018-11-26T02:25:31.895Z,77.46
2018-11-26T02:28:00.657Z,77.61
2018-11-26T02:30:29.728Z,77.17
2018-11-26T02:32:59.573Z,77.43
2018-11-26T02:35:28.849Z,77.33
2018-11-26T02:37:58.058Z,77.74
2018-11-26T02:40:28.911Z,77.57
2018-11-26T02:42:58.830Z,77.18
2018-11-26T02:45:28.040Z,77.08
2018-11-26T02:47:57.081Z,77.38
2018-11-26T02:50:26.024Z,77.58
2018-11-26T02:52:55.006Z,77.30
2018-11-26T02:55:23.801Z,77.17
2018-11-26T02:57:52.787Z,77.10
2018-11-26T03:00:21.735Z,77.29
2018-11-26T03:02:50.769Z,77.65
2018-11-26T03:05:25.602Z,77.35
2018-11-26T03:07:54.757Z,77.32
2018-11-26T03:10:23.836Z,77.23
2018-11-26T03:12:53.194Z,77.40
2018-11-26T03:15:22.158Z,77.68
2018-11-26T03:17:55.222Z,77.67
2018-11-26T03:20:24.048Z,77.33
2018-11-26T03:22:52.802Z,78.00
2018-11-26T03:25:22.272Z,77.78
2018-11-26T03:27:51.347Z,77.94
2018-11-26T03:30:21.502Z,77.75
2018-11-26T03:32:50.695Z,77.56
2018-11-26T03:35:20.219Z,77.93
2018-11-26T03:37:49.066Z,78.17
2018-11-26T03:40:18.037Z,77.96
2018-11-26T03:42:46.988Z,78.37
2018-11-26T03:45:17.810Z,78.39
2018-11-26T03:47:46.675Z,78.11
2018-11-26T03:50:15.637Z,78.88
2018-11-26T03:52:44.964Z,78.35
2018-11-26T03:55:14.420Z,78.55
2018-11-26T03:57:43.258Z,78.61
2018-11-26T04:00:14.144Z,78.52
2018-11-26T04:02:43.260Z,78.82
2018-11-26T04:05:12.579Z,77.97
2018-11-26T04:07:41.633Z,78.12
2018-11-26T04:10:11.602Z,78.41
2018-11-26T04:12:45.478Z,78.00
2018-11-26T04:15:15.524Z,78.12
2018-11-26T04:17:44.283Z,77.98
2018-11-26T04:20:17.783Z,77.44
2018-11-26T04:22:46.541Z,77.23
2018-11-26T04:25:15.287Z,77.11
2018-11-26T04:27:44.044Z,77.20
2018-11-26T04:30:13.347Z,76.71
2018-11-26T04:32:42.084Z,76.80
2018-11-26T04:35:11.017Z,76.33
2018-11-26T04:37:39.765Z,76.87
2018-11-26T04:40:10.532Z,76.44
2018-11-26T04:42:39.536Z,76.65
2018-11-26T04:45:09.699Z,76.98
2018-11-26T04:47:38.645Z,75.84
2018-11-26T04:50:11.797Z,75.82
2018-11-26T04:52:40.886Z,75.93
2018-11-26T04:55:10.825Z,75.81
2018-11-26T04:57:42.564Z,76.13
2018-11-26T05:00:10.699Z,76.10
2018-11-26T05:02:39.569Z,75.59
2018-11-26T05:05:09.259Z,75.69
2018-11-26T05:07:38.174Z,75.48
2018-11-26T05:10:10.180Z,75.53
2018-11-26T05:12:38.893Z,75.11
2018-11-26T05:15:09.492Z,75.08
2018-11-26T05:17:39.072Z,74.49
2018-11-26T05:20:12.733Z,74.91
2018-11-26T05:22:41.552Z,74.35
2018-11-26T05:25:11.096Z,74.71
2018-11-26T05:27:39.967Z,74.40
2018-11-26T05:30:13.058Z,74.49
2018-11-26T05:32:42.034Z,74.33
2018-11-26T05:35:11.804Z,74.22
2018-11-26T05:37:40.616Z,73.51
2018-11-26T05:40:10.859Z,73.58
2018-11-26T05:42:39.574Z,74.11
2018-11-26T05:45:11.079Z,74.09
2018-11-26T05:47:39.801Z,73.61
2018-11-26T05:50:10.904Z,73.20
2018-11-26T05:52:40.374Z,73.01
2018-11-26T05:55:11.450Z,72.29
2018-11-26T05:57:40.157Z,72.17
2018-11-26T06:00:13.612Z,72.64
2018-11-26T06:02:42.344Z,72.55
2018-11-26T06:05:11.215Z,72.62
2018-11-26T06:07:40.022Z,72.98
2018-11-26T06:10:09.888Z,72.88
2018-11-26T06:12:39.134Z,73.08
2018-11-26T06:15:11.719Z,73.79
2018-11-26T06:17:40.650Z,73.87
2018-11-26T06:20:12.246Z,74.00
2018-11-26T06:22:43.037Z,74.37
2018-11-26T06:25:19.788Z,74.62
2018-11-26T06:27:48.789Z,75.52
2018-11-26T06:30:18.671Z,76.25
2018-11-26T06:32:47.457Z,76.54
2018-11-26T06:35:23.435Z,76.59
2018-11-26T06:37:52.201Z,76.79
2018-11-26T06:40:21.039Z,77.19
2018-11-26T06:42:49.799Z,77.16
2018-11-26T06:45:21.155Z,77.37
2018-11-26T06:47:49.867Z,77.68
2018-11-26T06:50:19.684Z,77.29
2018-11-26T06:52:48.700Z,77.51
2018-11-26T06:55:18.628Z,77.90
2018-11-26T06:57:47.401Z,77.60
2018-11-26T07:00:18.226Z,77.96
2018-11-26T07:02:46.939Z,77.30
2018-11-26T07:05:17.781Z,77.63
2018-11-26T07:07:46.674Z,77.87
2018-11-26T07:10:15.832Z,77.78
2018-11-26T07:12:44.600Z,77.97
2018-11-26T07:15:16.650Z,78.10
2018-11-26T07:17:45.355Z,78.03
2018-11-26T07:20:15.376Z,77.98
2018-11-26T07:22:44.269Z,78.06
2018-11-26T07:25:13.970Z,77.73
2018-11-26T07:27:43.328Z,77.48
2018-11-26T07:30:16.391Z,78.06
2018-11-26T07:32:45.289Z,77.90
2018-11-26T07:35:14.526Z,77.57
2018-11-26T07:37:43.566Z,77.46
2018-11-26T07:40:14.799Z,77.87
2018-11-26T07:42:47.440Z,77.92
2018-11-26T07:45:16.266Z,77.78
2018-11-26T07:47:44.985Z,77.53
2018-11-26T07:50:17.463Z,77.67
2018-11-26T07:52:46.242Z,77.25
2018-11-26T07:55:17.151Z,77.58
2018-11-26T07:57:46.395Z,77.55
2018-11-26T08:00:17.398Z,78.20
2018-11-26T08:02:46.685Z,77.56
2018-11-26T08:05:17.062Z,77.58
2018-11-26T08:07:45.831Z,77.44
2018-11-26T08:10:15.630Z,77.45
2018-11-26T08:12:45.648Z,77.42
2018-11-26T08:15:17.290Z,76.81
2018-11-26T08:17:46.104Z,77.01
2018-11-26T08:20:14.874Z,76.64
2018-11-26T08:22:43.626Z,76.46
2018-11-26T08:25:14.566Z,76.50
2018-11-26T08:27:44.123Z,75.84
2018-11-26T08:30:13.982Z,76.10
2018-11-26T08:32:44.334Z,76.20
2018-11-26T08:35:15.338Z,76.10
2018-11-26T08:37:49.558Z,75.51
2018-11-26T08:40:23.646Z,75.51
2018-11-26T08:42:57.814Z,75.26
2018-11-26T08:45:32.060Z,75.38
2018-11-26T08:48:06.048Z,75.34
2018-11-26T08:50:34.907Z,74.79
2018-11-26T08:53:03.614Z,74.85
2018-11-26T08:55:32.475Z,74.25
2018-11-26T08:58:01.245Z,73.95
2018-11-26T09:00:30.296Z,74.07
2018-11-26T09:08:07.896Z,73.10
2018-11-26T09:10:36.711Z,72.97
2018-11-26T09:13:06.136Z,72.96
2018-11-26T09:15:35.963Z,72.84
2018-11-26T09:18:04.784Z,72.14
2018-11-26T09:20:33.559Z,71.65
2018-11-26T09:23:02.349Z,71.32
2018-11-26T09:25:32.343Z,71.01
2018-11-26T09:28:01.169Z,70.72
2018-11-26T09:30:31.016Z,70.42
2018-11-26T09:33:00.555Z,70.36
2018-11-26T09:35:30.347Z,69.89
2018-11-26T09:37:59.189Z,69.15
2018-11-26T09:40:28.837Z,69.19
2018-11-26T09:42:57.621Z,69.24
2018-11-26T09:45:26.563Z,68.95
2018-11-26T09:47:55.388Z,68.08
2018-11-26T09:50:24.599Z,68.91
2018-11-26T09:52:53.915Z,69.06
2018-11-26T09:55:23.407Z,68.69
2018-11-26T09:57:52.292Z,68.92
2018-11-26T10:00:21.239Z,69.09
2018-11-26T10:02:51.119Z,68.71
2018-11-26T10:05:25.218Z,68.48
2018-11-26T10:07:53.973Z,69.02
2018-11-26T10:10:22.774Z,68.54
2018-11-26T10:12:52.598Z,67.98
2018-11-26T10:15:22.485Z,67.80
2018-11-26T10:17:51.599Z,67.58
2018-11-26T10:20:20.587Z,66.65
2018-11-26T10:22:50.213Z,65.62
2018-11-26T10:25:20.721Z,65.81
2018-11-26T10:27:49.551Z,65.43
2018-11-26T10:30:19.799Z,65.49
2018-11-26T10:32:50.229Z,65.06
2018-11-26T10:35:19.663Z,64.55
2018-11-26T10:37:48.613Z,64.79
2018-11-26T10:40:20.899Z,63.92
2018-11-26T10:42:49.655Z,64.83
2018-11-26T10:45:19.423Z,64.29
2018-11-26T10:47:48.323Z,64.09
2018-11-26T10:50:18.303Z,63.80
2018-11-26T10:52:50.442Z,63.98
2018-11-26T10:55:26.658Z,63.95
2018-11-26T10:57:55.961Z,64.35
2018-11-26T11:00:29.965Z,63.85
2018-11-26T11:02:58.856Z,63.71
2018-11-26T11:05:27.672Z,63.10
2018-11-26T11:07:56.402Z,62.73
2018-11-26T11:10:33.238Z,63.21
2018-11-26T11:13:02.064Z,62.90
2018-11-26T11:15:30.782Z,62.21
2018-11-26T11:18:00.910Z,62.42
2018-11-26T11:20:30.646Z,62.03
2018-11-26T11:23:00.456Z,61.80
2018-11-26T11:25:29.373Z,60.97
2018-11-26T11:27:58.148Z,61.74
2018-11-26T11:30:28.766Z,60.60
2018-11-26T11:32:57.706Z,60.84
2018-11-26T11:35:26.631Z,59.38
2018-11-26T11:37:55.800Z,59.41
2018-11-26T11:40:26.907Z,59.98
2018-11-26T11:42:55.834Z,60.01
2018-11-26T11:45:25.105Z,60.16
2018-11-26T11:47:54.080Z,60.40
2018-11-26T11:50:23.144Z,59.87
2018-11-26T11:52:52.238Z,60.12
2018-11-26T11:55:23.384Z,59.95
2018-11-26T11:57:52.612Z,59.89
2018-11-26T12:00:35.402Z,59.10
2018-11-26T12:03:06.777Z,58.85
2018-11-26T12:05:35.615Z,59.47
2018-11-26T12:08:04.666Z,59.45
2018-11-26T12:10:34.801Z,59.18
2018-11-26T12:13:03.594Z,59.38
2018-11-26T12:15:32.682Z,58.62
2018-11-26T12:18:01.535Z,58.16
2018-11-26T12:20:30.619Z,58.51
2018-11-26T12:22:59.814Z,58.31
2018-11-26T12:25:28.582Z,58.24
2018-11-26T12:27:57.456Z,58.82
2018-11-26T12:30:27.693Z,59.09
2018-11-26T12:32:56.913Z,58.88
2018-11-26T12:35:25.763Z,58.54
2018-11-26T12:37:54.584Z,58.06
2018-11-26T12:40:25.329Z,57.57
2018-11-26T12:42:56.911Z,58.10
2018-11-26T12:45:28.714Z,58.18
2018-11-26T12:47:57.807Z,58.45
2018-11-26T12:50:26.725Z,58.62
2018-11-26T12:52:55.521Z,58.48
2018-11-26T12:55:25.024Z,58.77
2018-11-26T12:57:54.803Z,58.51
2018-11-26T13:00:24.884Z,59.14
2018-11-26T13:02:56.956Z,59.28
2018-11-26T13:05:25.835Z,58.76
2018-11-26T13:07:54.668Z,58.86
2018-11-26T13:10:23.998Z,58.89
2018-11-26T13:12:53.537Z,58.73
2018-11-26T13:15:24.417Z,58.87
2018-11-26T13:17:53.272Z,58.76
2018-11-26T13:20:26.878Z,58.81
2018-11-26T13:22:55.822Z,59.06
2018-11-26T13:25:25.782Z,58.44
2018-11-26T13:27:55.984Z,58.48
2018-11-26T13:30:30.452Z,58.77
2018-11-26T13:33:00.668Z,58.36
2018-11-26T13:35:29.455Z,58.93
2018-11-26T13:37:59.025Z,59.40
2018-11-26T13:40:28.060Z,59.11
2018-11-26T13:42:56.843Z,59.55
2018-11-26T13:45:32.293Z,59.85
2018-11-26T13:48:01.079Z,59.82
2018-11-26T13:50:32.650Z,60.19
2018-11-26T13:53:02.030Z,60.27
2018-11-26T13:55:30.881Z,60.32
2018-11-26T13:58:00.943Z,60.66
2018-11-26T14:00:31.133Z,60.43
2018-11-26T14:03:00.795Z,60.82
2018-11-26T14:05:29.862Z,60.57
2018-11-26T14:07:59.312Z,60.77
2018-11-26T14:10:28.760Z,60.95
2018-11-26T14:13:03.775Z,60.35
2018-11-26T14:15:33.037Z,60.75
2018-11-26T14:18:01.963Z,60.63
2018-11-26T14:20:30.837Z,60.50
2018-11-26T14:22:59.888Z,60.80
2018-11-26T14:25:28.797Z,60.71
2018-11-26T14:27:57.551Z,60.64
2018-11-26T14:30:27.705Z,60.96
2018-11-26T14:32:56.681Z,60.79
2018-11-26T14:35:25.536Z,60.91
2018-11-26T14:37:57.503Z,60.69
2018-11-26T14:40:31.868Z,60.83
2018-11-26T14:43:00.851Z,60.45
2018-11-26T14:45:29.620Z,60.77
2018-11-26T14:47:58.850Z,60.78
2018-11-26T14:50:27.760Z,61.22
2018-11-26T14:52:56.679Z,60.57
2018-11-26T14:55:28.923Z,60.60
2018-11-26T14:57:57.871Z,60.85
2018-11-26T15:00:26.712Z,60.94
2018-11-26T15:02:55.533Z,61.33
2018-11-26T15:05:24.616Z,61.09
2018-11-26T15:07:53.454Z,61.08
2018-11-26T15:10:23.724Z,61.38
2018-11-26T15:12:53.059Z,61.16
2018-11-26T15:15:25.015Z,61.36
2018-11-26T15:17:53.942Z,61.27
2018-11-26T15:20:25.086Z,61.24
2018-11-26T15:22:55.174Z,61.39
2018-11-26T15:25:24.966Z,61.16
2018-11-26T15:27:55.147Z,61.14
2018-11-26T15:30:24.101Z,61.10
2018-11-26T15:32:53.052Z,60.71
2018-11-26T15:35:23.105Z,60.93
2018-11-26T15:37:51.888Z,60.81
2018-11-26T15:40:22.633Z,60.75
2018-11-26T15:42:51.488Z,60.39
2018-11-26T15:45:23.423Z,59.83
2018-11-26T15:47:53.069Z,59.74
2018-11-26T15:50:21.816Z,60.00
2018-11-26T15:52:50.790Z,60.31
2018-11-26T15:55:20.679Z,59.79
2018-11-26T15:57:49.541Z,59.51
2018-11-26T16:00:24.747Z,60.24
2018-11-26T16:02:53.909Z,60.69
2018-11-26T16:05:26.021Z,60.54
2018-11-26T16:08:03.078Z,60.57
2018-11-26T16:10:31.923Z,60.74
2018-11-26T16:13:02.143Z,60.88
2018-11-26T16:15:34.045Z,61.14
2018-11-26T16:18:03.660Z,60.92
2018-11-26T16:20:32.492Z,61.02
2018-11-26T16:23:01.612Z,61.25
2018-11-26T16:25:30.973Z,61.19
2018-11-26T16:27:59.754Z,61.23
2018-11-26T16:30:29.205Z,61.40
2018-11-26T16:32:58.867Z,61.68
2018-11-26T16:35:30.217Z,62.17
2018-11-26T16:37:59.094Z,62.54
2018-11-26T16:40:27.975Z,62.34
2018-11-26T16:42:56.835Z,62.07
2018-11-26T16:45:26.920Z,62.57
2018-11-26T16:47:56.585Z,62.75
2018-11-26T16:50:27.705Z,62.52
2018-11-26T16:52:56.443Z,62.72
2018-11-26T16:55:25.182Z,62.34
2018-11-26T16:57:54.335Z,62.58
2018-11-26T17:00:24.296Z,63.14
2018-11-26T17:02:54.251Z,63.00
2018-11-26T17:05:25.521Z,62.85
2018-11-26T17:07:54.233Z,62.87
2018-11-26T17:10:22.977Z,62.91
2018-11-26T17:12:51.791Z,63.18
2018-11-26T17:15:20.571Z,63.81
2018-11-26T17:17:49.613Z,63.69
2018-11-26T17:20:18.793Z,63.44
2018-11-26T17:22:47.572Z,63.66
2018-11-26T17:25:17.343Z,63.46
2018-11-26T17:27:46.516Z,63.24
2018-11-26T17:30:25.648Z,63.63
2018-11-26T17:33:00.559Z,63.79
2018-11-26T17:35:29.976Z,63.95
2018-11-26T17:37:58.735Z,63.79
2018-11-26T17:40:28.067Z,64.00
2018-11-26T17:42:57.013Z,63.96
2018-11-26T17:45:26.379Z,64.27
2018-11-26T17:47:57.448Z,64.01
2018-11-26T17:50:32.763Z,63.75
2018-11-26T17:53:01.646Z,63.58
2018-11-26T17:55:31.211Z,63.68
2018-11-26T17:57:59.964Z,63.22
2018-11-26T18:00:30.561Z,63.21
2018-11-26T18:02:59.406Z,63.27
2018-11-26T18:05:29.528Z,63.07
2018-11-26T18:08:17.567Z,62.54
2018-11-26T18:10:46.364Z,62.52
2018-11-26T18:13:15.145Z,62.44
2018-11-26T18:15:44.073Z,62.41
2018-11-26T18:18:16.403Z,62.34
2018-11-26T18:20:45.579Z,61.69
2018-11-26T18:23:14.511Z,61.53
2018-11-26T18:25:43.628Z,61.48
2018-11-26T18:28:13.914Z,61.39
2018-11-26T18:30:46.901Z,60.60
2018-11-26T18:33:16.143Z,60.53
2018-11-26T18:35:45.597Z,60.19
2018-11-26T18:38:14.392Z,59.98
2018-11-26T18:40:44.628Z,59.67
2018-11-26T18:43:13.374Z,59.86
2018-11-26T18:45:42.852Z,59.68
2018-11-26T18:48:12.801Z,59.53
2018-11-26T18:50:41.550Z,59.91
2018-11-26T18:53:10.241Z,59.28
2018-11-26T18:55:40.293Z,59.45
2018-11-26T18:58:09.113Z,59.58
2018-11-26T19:00:40.326Z,59.34
2018-11-26T19:03:09.186Z,59.12
2018-11-26T19:05:37.904Z,59.24
2018-11-26T19:08:07.246Z,58.54
2018-11-26T19:10:37.479Z,58.85
2018-11-26T19:13:22.665Z,57.96
2018-11-26T19:15:52.423Z,58.52
2018-11-26T19:18:23.519Z,58.70
2018-11-26T19:20:52.664Z,59.00
2018-11-26T19:23:21.963Z,59.23
2018-11-26T19:25:51.781Z,58.54
2018-11-26T19:28:20.698Z,58.92
2018-11-26T19:30:49.501Z,58.58
2018-11-26T19:33:18.267Z,58.66
2018-11-26T19:35:47.072Z,58.50
2018-11-26T19:38:16.002Z,58.21
2018-11-26T19:40:44.790Z,58.23
2018-11-26T19:43:13.801Z,57.87
2018-11-26T19:45:42.735Z,57.88
2018-11-26T19:48:11.583Z,58.13
2018-11-26T19:50:40.581Z,57.47
2018-11-26T19:53:11.718Z,58.02
2018-11-26T19:55:41.692Z,57.15
2018-11-26T19:58:10.865Z,57.36
2018-11-26T20:00:40.134Z,57.29
2018-11-26T20:03:20.494Z,57.12
2018-11-26T20:06:10.490Z,57.40
2018-11-26T20:08:39.732Z,57.14
2018-11-26T20:11:08.668Z,56.95
2018-11-26T20:13:38.251Z,56.77
2018-11-26T20:16:11.996Z,56.96
2018-11-26T20:18:40.902Z,57.39
2018-11-26T20:21:09.648Z,56.78
2018-11-26T20:23:38.437Z,57.18
2018-11-26T20:26:07.665Z,57.02
2018-11-26T20:28:36.523Z,57.26
2018-11-26T20:31:05.720Z,56.61
2018-11-26T20:33:34.459Z,56.82
2018-11-26T20:36:03.253Z,56.83
2018-11-26T20:38:32.899Z,56.89
2018-11-26T20:41:01.768Z,56.84
2018-11-26T20:43:31.507Z,57.43
2018-11-26T20:46:00.452Z,57.66
2018-11-26T20:48:30.549Z,57.79
2018-11-26T20:50:58.092Z,58.17
2018-11-26T20:53:28.321Z,58.70
2018-11-26T20:55:57.271Z,59.24
2018-11-26T20:58:26.263Z,59.46
2018-11-26T21:00:55.738Z,59.65
2018-11-26T21:03:24.668Z,60.19
2018-11-26T21:05:55.030Z,60.39
2018-11-26T21:08:23.937Z,60.89
2018-11-26T21:10:54.228Z,61.17
2018-11-26T21:13:23.128Z,61.57
2018-11-26T21:15:53.820Z,61.80
2018-11-26T21:18:22.727Z,62.11
2018-11-26T21:20:52.051Z,62.67
2018-11-26T21:23:22.482Z,62.92
2018-11-26T21:25:51.521Z,63.58
2018-11-26T21:28:20.304Z,63.67
2018-11-26T21:30:52.122Z,64.08
2018-11-26T21:33:18.188Z,64.42
2018-11-26T21:35:47.205Z,64.79
2018-11-26T21:38:16.308Z,65.01
2018-11-26T21:40:45.478Z,65.12
2018-11-26T21:43:14.213Z,65.00
2018-11-26T21:45:59.560Z,65.35
2018-11-26T21:48:28.553Z,66.01
2018-11-26T21:50:57.349Z,65.73
2018-11-26T21:53:26.303Z,65.70
2018-11-26T21:55:55.271Z,65.83
2018-11-26T21:58:24.049Z,65.87
2018-11-26T22:00:55.216Z,66.76
2018-11-26T22:03:24.050Z,67.14
2018-11-26T22:05:52.900Z,67.53
2018-11-26T22:08:22.089Z,67.73
2018-11-26T22:10:50.932Z,67.95
2018-11-26T22:13:21.220Z,68.01
2018-11-26T22:15:50.093Z,68.13
2018-11-26T22:18:18.903Z,68.37
2018-11-26T22:20:47.816Z,68.43
2018-11-26T22:23:16.883Z,68.51
2018-11-26T22:25:45.818Z,68.46
2018-11-26T22:28:14.629Z,68.59
2018-11-26T22:30:43.584Z,68.70
2018-11-26T22:33:12.369Z,69.09
2018-11-26T22:35:41.142Z,69.10
2018-11-26T22:38:09.985Z,69.00
2018-11-26T22:40:38.732Z,68.79
2018-11-26T22:43:07.514Z,68.76
2018-11-26T22:45:36.400Z,68.77
2018-11-26T22:48:08.784Z,68.69
2018-11-26T22:50:38.655Z,68.83
2018-11-26T22:53:08.581Z,69.52
2018-11-26T22:55:37.312Z,69.42
2018-11-26T22:58:08.107Z,69.10
2018-11-26T23:00:41.573Z,68.84
2018-11-26T23:03:11.254Z,69.21
2018-11-26T23:05:40.012Z,69.12
2018-11-26T23:08:08.858Z,68.88
2018-11-26T23:10:37.687Z,69.92
2018-11-26T23:13:07.093Z,70.41
2018-11-26T23:15:35.869Z,70.58
2018-11-26T23:18:04.654Z,70.00
2018-11-26T23:20:33.396Z,70.61
2018-11-26T23:23:02.153Z,70.40
2018-11-26T23:25:32.083Z,70.22
2018-11-26T23:28:01.759Z,71.22
2018-11-26T23:30:31.145Z,71.11
2018-11-26T23:33:02.170Z,70.98
2018-11-26T23:35:31.825Z,71.37
2018-11-26T23:38:00.536Z,71.10
2018-11-26T23:40:29.308Z,71.75
2018-11-26T23:42:58.048Z,71.22
2018-11-26T23:45:27.794Z,72.05
2018-11-26T23:47:56.586Z,71.87
2018-11-26T23:50:25.391Z,71.71
2018-11-26T23:52:54.176Z,72.04
2018-11-26T23:55:24.196Z,72.84
2018-11-26T23:57:52.899Z,72.82
